Time;durP1;ratioP1;P1;durP2;ratioP2;P2;SDS_P1;SDS_P2;PMS_P1;PMS_P2;Temp;Humidity;BMP_temperature;BMP_pressure;BME280_temperature;BME280_humidity;BME280_pressure;Samples;Min_cycle;Max_cycle;Signal;HPM_P1;HPM_P2
2024/01/29 00:02:35;;;;;;;;;;;;;;;-16.72;46.50;97974.16;6346056;28;19927;-67
2024/01/29 00:05:35;;;;;;;;;;;;;;;-16.70;46.34;97968.38;6345923;28;19939;-66
2024/01/29 00:08:37;;;;;;;;;;;;;;;-16.65;46.07;97971.19;6345320;28;19924;-67
2024/01/29 00:11:39;;;;;;;;;;;;;;;-16.57;45.99;97969.97;6345679;28;20006;-67
2024/01/29 00:14:40;;;;;;;;;;;;;;;-16.43;46.04;97974.16;6345762;28;19931;-67
2024/01/29 00:17:42;;;;;;;;;;;;;;;-16.28;45.93;97973.28;6326647;28;19931;-66
2024/01/29 00:20:45;;;;;;;;;;;;;;;-16.14;45.47;97987.53;6345987;28;19924;-65
2024/01/29 00:23:47;;;;;;;;;;;;;;;-16.02;45.14;97984.81;6344372;28;19923;-67
2024/01/29 00:26:51;;;;;;;;;;;;;;;-15.96;45.07;97978.50;6345148;28;19928;-66
2024/01/29 00:29:52;;;;;;;;;;;;;;;-15.92;44.71;97977.88;6345352;28;19930;-66
2024/01/29 00:32:54;;;;;;;;;;;;;;;-15.89;44.97;97978.03;6345312;28;20423;-66
2024/01/29 00:35:57;;;;;;;;;;;;;;;-15.83;44.98;97974.13;6345176;28;19924;-66
2024/01/29 00:38:58;;;;;;;;;;;;;;;-15.82;44.53;97970.81;6345180;28;19977;-66
2024/01/29 00:42:01;;;;;;;;;;;;;;;-15.78;45.10;97975.25;6344981;28;19923;-67
2024/01/29 00:45:05;;;;;;;;;;;;;;;-15.73;45.22;97958.72;6345033;28;19930;-66
2024/01/29 00:48:06;;;;;;;;;;;;;;;-15.67;44.94;97966.59;6344939;28;19943;-66
2024/01/29 00:51:09;;;;;;;;;;;;;;;-15.68;44.94;97969.91;6326655;28;19924;-67
2024/01/29 00:54:13;;;;;;;;;;;;;;;-15.75;45.15;97978.78;6344475;28;19928;-67
2024/01/29 00:57:15;;;;;;;;;;;;;;;-15.83;44.76;97976.66;6344035;28;20343;-66
2024/01/29 01:00:17;;;;;;;;;;;;;;;-15.91;45.24;97971.16;6325763;28;20305;-66
2024/01/29 01:03:18;;;;;;;;;;;;;;;-15.96;45.71;97973.44;6343679;28;19930;-66
2024/01/29 01:06:21;;;;;;;;;;;;;;;-15.97;45.84;97971.69;6343590;28;19923;-68
2024/01/29 01:09:22;;;;;;;;;;;;;;;-16.00;45.43;97981.63;6344033;28;20420;-66
2024/01/29 01:12:26;;;;;;;;;;;;;;;-16.07;45.68;97977.03;6344097;28;19919;-67
2024/01/29 01:15:29;;;;;;;;;;;;;;;-16.10;45.63;97979.38;6343755;28;19923;-66
2024/01/29 01:18:30;;;;;;;;;;;;;;;-16.14;45.81;97977.44;6330569;28;19928;-67
2024/01/29 01:21:35;;;;;;;;;;;;;;;-16.20;45.77;97985.53;6318996;28;19920;-66
2024/01/29 01:24:37;;;;;;;;;;;;;;;-16.29;45.78;97979.97;6318609;28;19924;-66
2024/01/29 01:27:39;;;;;;;;;;;;;;;-16.36;45.63;97981.31;6318014;28;19924;-66
2024/01/29 01:30:43;;;;;;;;;;;;;;;-16.39;45.91;97981.09;6319417;28;19924;-66
2024/01/29 01:33:47;;;;;;;;;;;;;;;-16.41;46.00;97977.66;6319211;28;20061;-66
2024/01/29 01:36:51;;;;;;;;;;;;;;;-16.40;46.13;97974.31;6319016;28;20393;-66
2024/01/29 01:39:52;;;;;;;;;;;;;;;-16.31;45.96;97979.88;6318715;28;19969;-67
2024/01/29 01:42:53;;;;;;;;;;;;;;;-16.18;45.67;97970.53;6318819;28;19931;-67
2024/01/29 01:45:54;;;;;;;;;;;;;;;-16.08;45.61;97973.63;6318842;28;19924;-67
2024/01/29 01:48:56;;;;;;;;;;;;;;;-16.15;45.83;97978.25;6318935;28;20018;-67
2024/01/29 01:51:57;;;;;;;;;;;;;;;-16.26;45.87;97976.78;6319009;28;19928;-67
2024/01/29 01:54:58;;;;;;;;;;;;;;;-16.37;46.25;97974.50;6318940;28;19946;-66
2024/01/29 01:58:04;;;;;;;;;;;;;;;-16.43;46.55;97973.28;6319253;28;19924;-67
2024/01/29 02:01:08;;;;;;;;;;;;;;;-16.50;46.39;97979.59;6318315;28;19931;-66
2024/01/29 02:04:09;;;;;;;;;;;;;;;-16.58;46.63;97979.19;6318539;28;19947;-66
2024/01/29 02:07:12;;;;;;;;;;;;;;;-16.64;47.05;97982.97;6318460;28;19924;-67
2024/01/29 02:10:16;;;;;;;;;;;;;;;-16.67;47.08;97983.69;6318534;28;19924;-66
2024/01/29 02:13:22;;;;;;;;;;;;;;;-16.62;47.37;97986.47;6318436;28;19920;-66
2024/01/29 02:16:23;;;;;;;;;;;;;;;-16.51;46.49;97993.00;6317774;28;20266;-67
2024/01/29 02:19:26;;;;;;;;;;;;;;;-16.34;46.04;97994.84;6318293;28;19920;-67
2024/01/29 02:22:27;;;;;;;;;;;;;;;-16.15;46.24;97990.84;6319297;28;19931;-67
2024/01/29 02:25:29;;;;;;;;;;;;;;;-16.10;45.83;97994.50;6322474;28;20328;-67
2024/01/29 02:28:30;;;;;;;;;;;;;;;-16.13;45.93;97991.81;6322043;28;19928;-67
2024/01/29 02:31:31;;;;;;;;;;;;;;;-16.22;45.87;97996.31;6321505;28;19931;-66
2024/01/29 02:34:32;;;;;;;;;;;;;;;-16.32;46.29;97992.41;6322200;28;19930;-67
2024/01/29 02:37:34;;;;;;;;;;;;;;;-16.43;46.36;97989.28;6321776;28;19970;-66
2024/01/29 02:40:38;;;;;;;;;;;;;;;-16.51;46.57;97990.47;6322530;28;19924;-68
2024/01/29 02:43:42;;;;;;;;;;;;;;;-16.57;46.76;97990.13;6321954;28;20023;-66
2024/01/29 02:46:43;;;;;;;;;;;;;;;-16.62;47.25;97986.47;6321478;28;19944;-66
2024/01/29 02:49:44;;;;;;;;;;;;;;;-16.65;47.01;97987.16;6321639;28;19984;-67
2024/01/29 02:52:47;;;;;;;;;;;;;;;-16.65;47.17;97987.16;6322536;28;19928;-66
2024/01/29 02:55:51;;;;;;;;;;;;;;;-16.61;47.00;97990.75;6321899;28;19924;-66
2024/01/29 02:58:52;;;;;;;;;;;;;;;-16.65;47.41;97988.81;6303984;28;20246;-67
2024/01/29 03:01:53;;;;;;;;;;;;;;;-16.68;47.73;97992.00;6321731;28;19924;-65
2024/01/29 03:04:58;;;;;;;;;;;;;;;-16.70;47.67;97995.22;6321981;28;20135;-66
2024/01/29 03:07:59;;;;;;;;;;;;;;;-16.75;47.55;97995.84;6321808;28;19931;-66
2024/01/29 03:11:00;;;;;;;;;;;;;;;-16.78;47.73;97995.69;6320983;28;20316;-67
2024/01/29 03:14:01;;;;;;;;;;;;;;;-16.81;47.95;98004.69;6321479;28;19924;-65
2024/01/29 03:17:05;;;;;;;;;;;;;;;-16.83;47.83;97991.16;6322947;28;19924;-66
2024/01/29 03:20:06;;;;;;;;;;;;;;;-16.85;47.61;97983.50;6345771;28;19981;-67
2024/01/29 03:23:10;;;;;;;;;;;;;;;-16.87;47.81;97989.22;6346932;28;19927;-66
2024/01/29 03:26:11;;;;;;;;;;;;;;;-16.90;47.50;97989.91;6346537;28;19958;-66
2024/01/29 03:29:17;;;;;;;;;;;;;;;-16.90;47.70;97984.88;6346503;28;20095;-67
2024/01/29 03:32:23;;;;;;;;;;;;;;;-16.89;47.85;97986.63;6346688;28;20388;-67
2024/01/29 03:35:24;;;;;;;;;;;;;;;-16.88;47.47;97988.38;6344842;28;19924;-66
2024/01/29 03:38:25;;;;;;;;;;;;;;;-16.87;47.66;97985.06;6346515;28;19976;-67
2024/01/29 03:41:26;;;;;;;;;;;;;;;-16.87;47.79;97984.19;6346450;28;19924;-65
2024/01/29 03:44:30;;;;;;;;;;;;;;;-16.89;47.45;97981.59;6346396;28;20024;-65
2024/01/29 03:47:31;;;;;;;;;;;;;;;-16.88;47.73;97978.28;6346284;28;20369;-66
2024/01/29 03:50:34;;;;;;;;;;;;;;;-16.87;47.81;97989.22;6345298;28;19925;-66
2024/01/29 03:53:35;;;;;;;;;;;;;;;-16.88;47.84;97984.97;6345991;28;19927;-67
2024/01/29 03:56:38;;;;;;;;;;;;;;;-16.88;47.78;97980.81;6345912;28;20069;-67
2024/01/29 03:59:42;;;;;;;;;;;;;;;-16.89;48.00;97976.56;6345904;28;19923;-66
2024/01/29 04:02:46;;;;;;;;;;;;;;;-16.90;47.59;97972.28;6345832;28;19923;-67
2024/01/29 04:05:47;;;;;;;;;;;;;;;-16.89;47.71;97970.66;6345535;28;20286;-67
2024/01/29 04:08:48;;;;;;;;;;;;;;;-16.87;47.88;97975.00;6327235;28;20014;-66
2024/01/29 04:11:56;;;;;;;;;;;;;;;-16.83;47.53;97981.97;6346037;28;19924;-66
2024/01/29 04:14:57;;;;;;;;;;;;;;;-16.78;47.83;97984.75;6345696;28;20048;-66
2024/01/29 04:18:01;;;;;;;;;;;;;;;-16.69;47.83;97982.72;6335763;28;19963;-66
2024/01/29 04:21:05;;;;;;;;;;;;;;;-16.61;47.75;97973.13;6320217;28;19989;-68
2024/01/29 04:24:06;;;;;;;;;;;;;;;-16.52;47.53;97978.69;6319719;28;19924;-67
2024/01/29 04:27:08;;;;;;;;;;;;;;;-16.42;47.42;97972.50;6319065;28;19931;-67
2024/01/29 04:30:09;;;;;;;;;;;;;;;-16.28;47.32;97978.31;6319922;28;20483;-67
2024/01/29 04:33:10;;;;;;;;;;;;;;;-16.16;46.88;97984.94;6301507;28;19924;-67
2024/01/29 04:36:16;;;;;;;;;;;;;;;-16.03;47.39;97980.59;6320014;28;19924;-67
2024/01/29 04:39:17;;;;;;;;;;;;;;;-15.82;47.58;97985.94;6318944;28;19924;-67
2024/01/29 04:42:18;;;;;;;;;;;;;;;-15.59;47.42;97990.56;6319686;28;19931;-66
2024/01/29 04:45:19;;;;;;;;;;;;;;;-15.39;46.72;97977.38;6319430;28;20541;-67
2024/01/29 04:48:21;;;;;;;;;;;;;;;-15.21;46.15;97976.59;6318604;28;19924;-66
2024/01/29 04:51:25;;;;;;;;;;;;;;;-15.09;45.71;97977.22;6320042;28;20308;-67
2024/01/29 04:54:26;;;;;;;;;;;;;;;-14.93;45.69;97977.25;6300982;28;20397;-67
2024/01/29 04:57:27;;;;;;;;;;;;;;;-14.70;45.52;97980.09;6318255;28;19947;-66
2024/01/29 05:00:29;;;;;;;;;;;;;;;-14.36;45.11;97976.69;6319282;28;19931;-66
2024/01/29 05:03:30;;;;;;;;;;;;;;;-13.97;45.06;97987.03;6319328;28;19984;-67
2024/01/29 05:06:33;;;;;;;;;;;;;;;-13.51;44.74;97986.66;6319824;28;19924;-66
2024/01/29 05:09:37;;;;;;;;;;;;;;;-13.13;44.15;97979.13;6319046;28;19924;-67
2024/01/29 05:12:40;;;;;;;;;;;;;;;-12.86;43.65;97978.63;6318926;28;20014;-66
2024/01/29 05:15:41;;;;;;;;;;;;;;;-12.62;43.74;97977.94;6318917;28;19942;-67
2024/01/29 05:18:45;;;;;;;;;;;;;;;-12.39;44.09;97972.19;6317635;28;19931;-66
2024/01/29 05:21:47;;;;;;;;;;;;;;;-12.22;43.78;97976.31;6300636;28;19989;-66
2024/01/29 05:24:51;;;;;;;;;;;;;;;-12.19;43.64;97980.63;6319278;28;20321;-67
2024/01/29 05:27:52;;;;;;;;;;;;;;;-12.38;44.18;97978.13;6318054;28;19924;-67
2024/01/29 05:30:53;;;;;;;;;;;;;;;-12.58;44.16;97980.69;6317870;28;19931;-67
2024/01/29 05:33:56;;;;;;;;;;;;;;;-12.85;45.31;97977.81;6317898;28;19920;-67
2024/01/29 05:36:57;;;;;;;;;;;;;;;-12.97;46.27;97979.81;6318351;28;19931;-67
2024/01/29 05:39:57;;;;;;;;;;;;;;;-13.02;46.23;97983.78;6317811;28;20324;-67
2024/01/29 05:42:58;;;;;;;;;;;;;;;-12.98;46.38;97988.22;6317854;28;19924;-68
2024/01/29 05:45:59;;;;;;;;;;;;;;;-12.81;46.24;97992.34;6318517;28;20301;-66
2024/01/29 05:49:00;;;;;;;;;;;;;;;-12.35;46.72;97979.13;6317792;28;19930;-68
2024/01/29 05:52:04;;;;;;;;;;;;;;;-11.92;46.06;97985.97;6318769;28;19931;-68
2024/01/29 05:55:08;;;;;;;;;;;;;;;-11.51;45.02;97984.19;6318758;28;19924;-68
2024/01/29 05:58:11;;;;;;;;;;;;;;;-11.08;44.34;97976.50;6322184;28;19924;-66
2024/01/29 06:01:17;;;;;;;;;;;;;;;-11.13;44.50;97975.47;6323638;28;19932;-68
2024/01/29 06:04:18;;;;;;;;;;;;;;;-11.27;45.08;97976.63;6322368;28;19924;-67
2024/01/29 06:07:22;;;;;;;;;;;;;;;-11.42;45.03;97978.59;6323082;28;19924;-68
2024/01/29 06:10:27;;;;;;;;;;;;;;;-11.53;45.59;97980.72;6323238;28;19924;-66
2024/01/29 06:13:28;;;;;;;;;;;;;;;-11.56;45.39;97980.59;6322204;28;19977;-67
2024/01/29 06:16:32;;;;;;;;;;;;;;;-11.53;45.70;97986.66;6323177;28;20305;-67
2024/01/29 06:19:33;;;;;;;;;;;;;;;-10.42;45.24;97976.34;6322868;28;19920;-67
2024/01/29 06:22:39;;;;;;;;;;;;;;;-9.53;43.85;97984.34;6323283;28;19924;-68
2024/01/29 06:25:43;;;;;;;;;;;;;;;-9.69;43.68;97977.03;6305685;28;19927;-67
2024/01/29 06:28:46;;;;;;;;;;;;;;;-10.02;44.03;97974.25;6322041;28;19931;-66
2024/01/29 06:31:49;;;;;;;;;;;;;;;-10.31;44.79;97973.31;6321393;28;19931;-67
2024/01/29 06:34:56;;;;;;;;;;;;;;;-10.49;44.86;97960.81;6322638;28;19924;-66
2024/01/29 06:38:01;;;;;;;;;;;;;;;-10.15;45.31;97960.25;6322678;28;19928;-66
2024/01/29 06:41:02;;;;;;;;;;;;;;;-8.05;43.30;97963.00;6322746;28;20314;-68
2024/01/29 06:44:03;;;;;;;;;;;;;;;-6.28;40.49;97960.09;6321752;28;19924;-67
2024/01/29 06:47:04;;;;;;;;;;;;;;;-4.51;38.52;97961.94;6322449;28;19928;-69
2024/01/29 06:50:08;;;;;;;;;;;;;;;0.55;33.57;97970.00;6304783;28;19924;-67
2024/01/29 06:53:09;;;;;;;;;;;;;;;4.83;28.91;97969.25;6322005;28;19939;-67
2024/01/29 06:56:13;;;;;;;;;;;;;;;7.28;26.95;97965.63;6321982;28;19969;-68
2024/01/29 06:59:14;;;;;;;;;;;;;;;9.87;24.42;97964.19;6322464;28;20499;-68
2024/01/29 07:02:17;;;;;;;;;;;;;;;12.48;21.99;97961.81;6322142;28;19919;-68
2024/01/29 07:05:18;;;;;;;;;;;;;;;14.30;19.59;97958.16;6321370;28;19928;-68
2024/01/29 07:08:24;;;;;;;;;;;;;;;15.85;17.61;97960.44;6320584;28;19924;-66
2024/01/29 07:11:27;;;;;;;;;;;;;;;17.29;16.45;97955.41;6321811;28;19930;-69
2024/01/29 07:14:30;;;;;;;;;;;;;;;18.67;18.86;97954.53;6322084;28;19954;-69
2024/01/29 07:17:33;;;;;;;;;;;;;;;19.70;17.53;97953.16;6303096;28;19931;-68
2024/01/29 07:20:39;;;;;;;;;;;;;;;21.03;20.58;97954.00;6303138;28;20049;-68
2024/01/29 07:23:40;;;;;;;;;;;;;;;22.40;19.56;97947.50;6321588;28;19931;-68
2024/01/29 07:26:44;;;;;;;;;;;;;;;23.29;18.88;97949.53;6321098;28;20297;-68
2024/01/29 07:29:49;;;;;;;;;;;;;;;24.10;19.36;97948.53;6321578;28;19924;-67
2024/01/29 07:32:53;;;;;;;;;;;;;;;24.72;19.32;97942.16;6320660;28;20408;-68
2024/01/29 07:35:54;;;;;;;;;;;;;;;25.11;18.56;97939.75;6321097;28;19924;-67
2024/01/29 07:38:57;;;;;;;;;;;;;;;25.43;18.07;97936.28;6320439;28;19924;-67
2024/01/29 07:42:00;;;;;;;;;;;;;;;25.91;18.09;97934.59;6320214;28;19924;-67
2024/01/29 07:45:01;;;;;;;;;;;;;;;26.40;18.47;97931.78;6321257;28;19931;-68
2024/01/29 07:48:04;;;;;;;;;;;;;;;26.70;18.01;97923.94;6320845;28;19958;-67
2024/01/29 07:51:06;;;;;;;;;;;;;;;26.78;17.87;97917.66;6321184;28;19924;-68
2024/01/29 07:54:09;;;;;;;;;;;;;;;26.78;17.42;97910.41;6302757;28;20411;-67
2024/01/29 07:57:15;;;;;;;;;;;;;;;27.05;16.91;97916.31;6321008;28;19924;-67
2024/01/29 08:00:20;;;;;;;;;;;;;;;27.28;12.42;97911.81;6320852;28;19970;-68
2024/01/29 08:03:21;;;;;;;;;;;;;;;27.54;16.63;97916.00;6320104;28;19931;-67
2024/01/29 08:06:24;;;;;;;;;;;;;;;27.88;16.12;97922.81;6320592;28;20059;-68
2024/01/29 08:09:28;;;;;;;;;;;;;;;28.17;14.75;97914.75;6320593;28;20278;-67
2024/01/29 08:12:31;;;;;;;;;;;;;;;28.56;15.65;97916.38;6319793;28;19924;-69
2024/01/29 08:15:32;;;;;;;;;;;;;;;28.87;15.48;97918.84;6320450;28;19924;-68
2024/01/29 08:18:35;;;;;;;;;;;;;;;28.89;15.44;97910.50;6319478;28;20305;-67
2024/01/29 08:21:39;;;;;;;;;;;;;;;27.93;15.72;97909.59;6319445;28;19924;-67
2024/01/29 08:24:41;;;;;;;;;;;;;;;27.10;15.86;97911.22;6319844;28;20320;-68
2024/01/29 08:27:48;;;;;;;;;;;;;;;26.93;15.75;97902.38;6302360;28;19924;-67
2024/01/29 08:30:54;;;;;;;;;;;;;;;27.29;12.68;97894.59;6320065;28;19924;-68
2024/01/29 08:33:58;;;;;;;;;;;;;;;27.54;14.91;97899.78;6319977;28;19928;-67
2024/01/29 08:36:59;;;;;;;;;;;;;;;27.63;11.57;97897.84;6318879;28;20019;-68
2024/01/29 08:40:00;;;;;;;;;;;;;;;27.29;14.73;97897.28;6318717;28;20018;-68
2024/01/29 08:43:01;;;;;;;;;;;;;;;26.99;13.59;97895.44;6319907;28;20294;-68
2024/01/29 08:46:03;;;;;;;;;;;;;;;26.30;12.98;97888.00;6318762;28;20329;-68
2024/01/29 08:49:05;;;;;;;;;;;;;;;27.18;12.30;97884.19;6301431;28;20417;-68
2024/01/29 08:52:10;;;;;;;;;;;;;;;27.57;12.77;97887.75;6319585;28;19924;-67
2024/01/29 08:55:14;;;;;;;;;;;;;;;27.15;10.24;97873.72;6318757;28;19924;-68
2024/01/29 08:58:21;;;;;;;;;;;;;;;27.20;13.03;97881.28;6318806;28;19935;-68
2024/01/29 09:01:26;;;;;;;;;;;;;;;26.72;12.69;97867.91;6318668;28;20198;-68
2024/01/29 09:04:29;;;;;;;;;;;;;;;26.81;11.15;97866.84;6319553;28;20450;-68
2024/01/29 09:07:33;;;;;;;;;;;;;;;27.13;11.58;97864.94;6318738;28;19927;-69
2024/01/29 09:10:36;;;;;;;;;;;;;;;26.63;10.88;97855.47;6319150;28;19924;-68
2024/01/29 09:13:39;;;;;;;;;;;;;;;26.77;12.82;97860.09;6319359;28;19923;-68
2024/01/29 09:16:40;;;;;;;;;;;;;;;27.18;10.56;97848.25;6317179;28;19920;-68
2024/01/29 09:19:45;;;;;;;;;;;;;;;27.26;12.40;97851.72;6318300;28;20066;-68
2024/01/29 09:22:49;;;;;;;;;;;;;;;27.49;11.87;97848.97;6318505;28;19931;-66
2024/01/29 09:25:53;;;;;;;;;;;;;;;27.64;10.89;97846.28;6319075;28;19931;-68
2024/01/29 09:28:55;;;;;;;;;;;;;;;27.61;11.63;97838.56;6300944;28;20377;-69
2024/01/29 09:31:58;;;;;;;;;;;;;;;27.64;11.99;97840.88;6318747;28;19928;-69
2024/01/29 09:35:00;;;;;;;;;;;;;;;27.49;11.59;97826.53;6318946;28;19924;-69
2024/01/29 09:38:01;;;;;;;;;;;;;;;26.59;12.36;97830.69;6318298;28;19931;-68
2024/01/29 09:41:04;;;;;;;;;;;;;;;26.55;12.05;97834.78;6317737;28;20566;-68
2024/01/29 09:44:06;;;;;;;;;;;;;;;26.66;12.30;97822.72;6319117;28;19924;-67
2024/01/29 09:47:12;;;;;;;;;;;;;;;26.61;12.21;97822.41;6318682;28;19924;-68
2024/01/29 09:50:14;;;;;;;;;;;;;;;26.23;11.05;97819.53;6317822;28;19932;-68
2024/01/29 09:53:20;;;;;;;;;;;;;;;26.02;12.62;97822.00;6318580;28;20385;-68
2024/01/29 09:56:23;;;;;;;;;;;;;;;25.84;12.75;97833.00;6291830;28;19932;-67
2024/01/29 09:59:25;;;;;;;;;;;;;;;25.87;12.18;97836.19;6293623;28;19999;-68
2024/01/29 10:02:26;;;;;;;;;;;;;;;25.79;12.50;97838.03;6292809;28;19924;-69
2024/01/29 10:05:33;;;;;;;;;;;;;;;25.63;11.85;97836.22;6292443;28;19925;-69
2024/01/29 10:08:35;;;;;;;;;;;;;;;24.57;12.60;97836.97;6292518;28;19928;-70
2024/01/29 10:11:39;;;;;;;;;;;;;;;21.76;13.85;97830.34;6293046;28;19929;-68
2024/01/29 10:14:40;;;;;;;;;;;;;;;19.75;15.06;97821.88;6293277;28;19936;-68
2024/01/29 10:17:44;;;;;;;;;;;;;;;17.61;16.19;97821.75;6293255;28;19924;-68
2024/01/29 10:20:47;;;;;;;;;;;;;;;15.01;17.61;97803.44;6293257;28;19925;-68
2024/01/29 10:23:56;;;;;;;;;;;;;;;12.31;19.39;97806.16;6292280;28;19924;-68
2024/01/29 10:27:04;;;;;;;;;;;;;;;10.09;20.39;97805.44;6292864;28;19977;-68
2024/01/29 10:30:08;;;;;;;;;;;;;;;8.52;21.42;97791.47;6293175;28;20026;-69
2024/01/29 10:33:14;;;;;;;;;;;;;;;7.70;21.82;97794.75;6293073;28;19959;-68
2024/01/29 10:36:16;;;;;;;;;;;;;;;8.57;20.38;97798.28;6292953;28;19924;-68
2024/01/29 10:39:20;;;;;;;;;;;;;;;8.72;20.30;97784.53;6292667;28;19924;-68
2024/01/29 10:42:23;;;;;;;;;;;;;;;8.36;19.99;97790.34;6293007;28;19925;-68
2024/01/29 10:45:24;;;;;;;;;;;;;;;7.69;20.24;97798.28;6296900;28;20377;-68
2024/01/29 10:48:29;;;;;;;;;;;;;;;6.79;20.53;97789.38;6296813;28;19924;-68
2024/01/29 10:51:34;;;;;;;;;;;;;;;5.64;21.46;97793.97;6297122;28;20022;-69
2024/01/29 10:54:38;;;;;;;;;;;;;;;4.63;21.84;97795.06;6303019;28;19923;-67
2024/01/29 10:57:41;;;;;;;;;;;;;;;3.80;22.54;97791.91;6321926;28;20073;-67
2024/01/29 11:00:43;;;;;;;;;;;;;;;3.08;22.97;97796.06;6322461;28;19924;-68
2024/01/29 11:03:44;;;;;;;;;;;;;;;2.45;23.28;97794.66;6322045;28;20014;-69
2024/01/29 11:06:49;;;;;;;;;;;;;;;1.88;23.51;97796.50;6322008;28;19924;-68
2024/01/29 11:09:57;;;;;;;;;;;;;;;1.21;24.28;97793.13;6321238;28;19930;-68
2024/01/29 11:13:02;;;;;;;;;;;;;;;0.67;24.35;97783.38;6322051;28;19924;-68
2024/01/29 11:16:06;;;;;;;;;;;;;;;0.15;24.56;97786.50;6322101;28;20007;-68
2024/01/29 11:19:10;;;;;;;;;;;;;;;-0.25;25.19;97797.19;6321672;28;20034;-67
2024/01/29 11:22:12;;;;;;;;;;;;;;;-0.54;25.27;97800.81;6321919;28;19931;-68
2024/01/29 11:25:16;;;;;;;;;;;;;;;-0.81;25.80;97816.47;6321737;28;19931;-68
2024/01/29 11:28:24;;;;;;;;;;;;;;;-1.14;27.38;97803.66;6321547;28;19924;-68
2024/01/29 11:31:45;;;;;;;;;;;;;;;-1.47;26.21;97799.47;6321901;28;19924;-68
2024/01/29 11:34:47;;;;;;;;;;;;;;;-1.72;26.36;97800.41;6320814;28;20313;-68
2024/01/29 11:37:54;;;;;;;;;;;;;;;-1.97;26.53;97795.25;6321145;28;19927;-68
2024/01/29 11:41:00;;;;;;;;;;;;;;;-2.18;26.51;97797.81;6321557;28;20342;-69
2024/01/29 11:44:03;;;;;;;;;;;;;;;-2.46;26.97;97787.50;6321414;28;20443;-69
2024/01/29 11:47:09;;;;;;;;;;;;;;;-2.71;27.15;97782.31;6321214;28;19924;-69
2024/01/29 11:50:10;;;;;;;;;;;;;;;-2.96;27.37;97785.66;6319524;28;20274;-69
2024/01/29 11:53:15;;;;;;;;;;;;;;;-3.25;27.53;97788.16;6321070;28;19932;-68
2024/01/29 11:56:17;;;;;;;;;;;;;;;-3.49;28.03;97788.88;6320019;28;19924;-68
2024/01/29 11:59:23;;;;;;;;;;;;;;;-3.70;29.83;97790.47;6320741;28;19924;-68
2024/01/29 12:02:24;;;;;;;;;;;;;;;-3.95;30.11;97786.03;6320589;28;20045;-68
2024/01/29 12:05:25;;;;;;;;;;;;;;;-4.04;29.67;97793.69;6320191;28;20022;-68
2024/01/29 12:08:30;;;;;;;;;;;;;;;-4.12;29.51;97791.91;6320535;28;20317;-67
2024/01/29 12:11:31;;;;;;;;;;;;;;;-4.19;29.04;97795.28;6301529;28;20416;-67
2024/01/29 12:14:34;;;;;;;;;;;;;;;-4.31;28.75;97782.31;6320119;28;20365;-68
2024/01/29 12:17:37;;;;;;;;;;;;;;;-4.40;29.05;97790.81;6319399;28;19924;-67
2024/01/29 12:20:41;;;;;;;;;;;;;;;-4.51;29.56;97790.69;6320004;28;19932;-67
2024/01/29 12:23:45;;;;;;;;;;;;;;;-4.60;29.85;97792.34;6320107;28;19924;-68
2024/01/29 12:26:46;;;;;;;;;;;;;;;-4.70;30.41;97796.50;6319402;28;20005;-68
2024/01/29 12:29:47;;;;;;;;;;;;;;;-4.78;29.99;97805.88;6320103;28;19924;-68
2024/01/29 12:32:48;;;;;;;;;;;;;;;-4.86;32.30;97804.91;6319810;28;19931;-69
2024/01/29 12:35:51;;;;;;;;;;;;;;;-4.90;30.31;97813.41;6318549;28;19924;-67
2024/01/29 12:38:58;;;;;;;;;;;;;;;-5.01;30.69;97801.34;6319669;28;19924;-70
2024/01/29 12:42:03;;;;;;;;;;;;;;;-5.13;31.70;97801.19;6319136;28;19924;-69
2024/01/29 12:45:17;;;;;;;;;;;;;;;-5.19;31.32;97806.25;6319345;28;20000;-69
2024/01/29 12:48:24;;;;;;;;;;;;;;;-5.25;31.30;97817.28;6320026;28;20363;-69
2024/01/29 12:51:31;;;;;;;;;;;;;;;-5.37;31.31;97800.91;6319336;28;19924;-69
2024/01/29 12:54:32;;;;;;;;;;;;;;;-5.48;31.15;97809.31;6318315;28;19924;-67
2024/01/29 12:57:36;;;;;;;;;;;;;;;-5.62;32.07;97808.25;6319269;28;19931;-67
2024/01/29 13:00:43;;;;;;;;;;;;;;;-5.69;31.67;97803.88;6319401;28;19924;-68
2024/01/29 13:03:46;;;;;;;;;;;;;;;-5.69;32.21;97793.63;6319212;28;19923;-68
2024/01/29 13:06:48;;;;;;;;;;;;;;;-5.81;32.33;97798.56;6319396;28;19969;-68
2024/01/29 13:09:51;;;;;;;;;;;;;;;-5.92;32.09;97801.84;6319459;28;19924;-69
2024/01/29 13:12:52;;;;;;;;;;;;;;;-6.00;32.50;97793.22;6318436;28;20478;-68
2024/01/29 13:15:56;;;;;;;;;;;;;;;-6.09;33.46;97798.19;6318822;28;20019;-69
2024/01/29 13:19:03;;;;;;;;;;;;;;;-6.14;32.76;97798.13;6319026;28;19924;-68
2024/01/29 13:22:06;;;;;;;;;;;;;;;-6.17;32.55;97803.22;6319314;28;20320;-68
2024/01/29 13:25:07;;;;;;;;;;;;;;;-6.23;33.81;97789.44;6318365;28;19955;-68
2024/01/29 13:28:10;;;;;;;;;;;;;;;-6.19;33.58;97796.34;6318957;28;19924;-69
2024/01/29 13:31:11;;;;;;;;;;;;;;;-6.16;33.47;97797.25;6301043;28;19924;-69
2024/01/29 13:34:19;;;;;;;;;;;;;;;-6.11;33.56;97795.63;6319134;28;19924;-69
2024/01/29 13:37:25;;;;;;;;;;;;;;;-6.07;33.52;97795.66;6319124;28;19924;-67
2024/01/29 13:40:31;;;;;;;;;;;;;;;-6.06;33.77;97792.25;6318500;28;19928;-68
2024/01/29 13:43:33;;;;;;;;;;;;;;;-6.06;36.00;97788.00;6318093;28;19924;-69
2024/01/29 13:46:36;;;;;;;;;;;;;;;-6.04;34.53;97788.88;6318782;28;19920;-67
2024/01/29 13:49:38;;;;;;;;;;;;;;;-6.04;34.47;97791.44;6318252;28;19924;-69
2024/01/29 13:52:39;;;;;;;;;;;;;;;-6.04;34.82;97786.31;6317519;28;19943;-69
2024/01/29 13:55:41;;;;;;;;;;;;;;;-6.15;35.80;97792.97;6318206;28;20018;-69
2024/01/29 13:58:43;;;;;;;;;;;;;;;-6.12;34.97;97793.03;6317641;28;19924;-68
2024/01/29 14:01:47;;;;;;;;;;;;;;;-6.06;34.58;97793.13;6318522;28;20398;-68
2024/01/29 14:04:50;;;;;;;;;;;;;;;-6.13;34.92;97796.44;6318188;28;19924;-68
2024/01/29 14:07:56;;;;;;;;;;;;;;;-6.18;36.51;97793.78;6318129;28;19935;-66
2024/01/29 14:10:58;;;;;;;;;;;;;;;-6.21;36.62;97787.75;6317691;28;20366;-69
2024/01/29 14:14:02;;;;;;;;;;;;;;;-6.25;37.18;97780.88;6317714;28;19924;-69
2024/01/29 14:17:03;;;;;;;;;;;;;;;-6.21;36.90;97777.53;6317524;28;19931;-69
2024/01/29 14:20:05;;;;;;;;;;;;;;;-6.14;36.27;97780.22;6322870;28;20026;-67
2024/01/29 14:23:08;;;;;;;;;;;;;;;-6.11;35.57;97777.69;6322876;28;19943;-67
2024/01/29 14:26:10;;;;;;;;;;;;;;;-6.11;35.41;97774.28;6322249;28;20321;-68
2024/01/29 14:29:15;;;;;;;;;;;;;;;-6.12;36.63;97778.50;6322677;28;19919;-68
2024/01/29 14:32:18;;;;;;;;;;;;;;;-6.09;36.27;97772.56;6322492;28;19923;-67
2024/01/29 14:35:22;;;;;;;;;;;;;;;-6.05;36.31;97774.34;6323033;28;20024;-68
2024/01/29 14:38:29;;;;;;;;;;;;;;;-6.14;36.90;97775.09;6321894;28;20344;-68
2024/01/29 14:41:30;;;;;;;;;;;;;;;-6.12;37.90;97772.53;6322783;28;19985;-67
2024/01/29 14:44:34;;;;;;;;;;;;;;;-6.11;36.84;97769.16;6304297;28;20500;-68
2024/01/29 14:47:35;;;;;;;;;;;;;;;-6.15;37.51;97768.22;6322664;28;20308;-67
2024/01/29 14:50:41;;;;;;;;;;;;;;;-6.17;37.31;97763.91;6322285;28;19928;-67
2024/01/29 14:53:44;;;;;;;;;;;;;;;-6.20;37.00;97763.88;6322378;28;20308;-69
2024/01/29 14:56:50;;;;;;;;;;;;;;;-6.22;37.91;97765.56;6322331;28;19928;-68
2024/01/29 14:59:56;;;;;;;;;;;;;;;-6.26;38.17;97759.50;6322379;28;20408;-68
2024/01/29 15:02:57;;;;;;;;;;;;;;;-6.26;39.14;97762.06;6321669;28;20077;-69
2024/01/29 15:06:01;;;;;;;;;;;;;;;-6.23;38.38;97756.13;6321821;28;19929;-68
2024/01/29 15:09:04;;;;;;;;;;;;;;;-6.18;38.08;97757.06;6322066;28;19927;-68
2024/01/29 15:12:07;;;;;;;;;;;;;;;-6.13;38.38;97756.31;6321757;28;19924;-69
2024/01/29 15:15:10;;;;;;;;;;;;;;;-6.09;39.06;97754.63;6321905;28;19931;-68
2024/01/29 15:18:13;;;;;;;;;;;;;;;-6.04;38.90;97755.56;6322042;28;19924;-68
2024/01/29 15:21:16;;;;;;;;;;;;;;;-6.01;39.08;97753.06;6321811;28;19928;-69
2024/01/29 15:24:19;;;;;;;;;;;;;;;-5.98;38.65;97760.78;6320911;28;19928;-69
2024/01/29 15:27:20;;;;;;;;;;;;;;;-6.00;38.34;97754.78;6321619;28;19924;-69
2024/01/29 15:30:24;;;;;;;;;;;;;;;-6.07;38.41;97755.53;6320313;28;19924;-69
2024/01/29 15:33:27;;;;;;;;;;;;;;;-6.14;38.57;97746.06;6321692;28;20077;-68
2024/01/29 15:36:30;;;;;;;;;;;;;;;-6.19;39.79;97745.13;6321791;28;19924;-68
2024/01/29 15:39:33;;;;;;;;;;;;;;;-6.19;40.79;97745.13;6321189;28;19924;-68
2024/01/29 15:42:37;;;;;;;;;;;;;;;-6.11;40.03;97748.66;6320348;28;19924;-68
2024/01/29 15:45:38;;;;;;;;;;;;;;;-6.04;39.87;97745.31;6320942;28;19924;-68
2024/01/29 15:48:39;;;;;;;;;;;;;;;-5.99;39.58;97737.72;6321207;28;19924;-68